createdAt,value
2022-11-09T00:00:12.901Z,2.00
2022-11-09T00:00:35.784Z,1.90
2022-11-09T00:01:01.648Z,1.30
2022-11-09T00:01:24.514Z,1.00
2022-11-09T00:01:47.181Z,1.00
2022-11-09T00:02:09.854Z,1.00
2022-11-09T00:02:32.548Z,1.00
2022-11-09T00:02:56.395Z,1.00
2022-11-09T00:03:19.443Z,1.00
2022-11-09T00:03:42.644Z,1.00
2022-11-09T00:04:05.822Z,1.00
2022-11-09T00:04:28.619Z,1.00
2022-11-09T00:04:51.338Z,1.00
2022-11-09T00:05:14.183Z,1.00
2022-11-09T00:05:36.944Z,1.00
2022-11-09T00:06:00.422Z,1.00
2022-11-09T00:06:23.215Z,1.00
2022-11-09T00:06:45.987Z,1.00
2022-11-09T00:07:08.942Z,1.00
2022-11-09T00:07:32.342Z,1.00
2022-11-09T00:07:55.103Z,1.00
2022-11-09T00:08:17.817Z,1.00
2022-11-09T00:08:41.098Z,1.00
2022-11-09T00:09:07.700Z,1.00
2022-11-09T00:09:30.924Z,1.00
2022-11-09T00:09:53.776Z,1.00
2022-11-09T00:10:16.678Z,1.00
2022-11-09T00:10:39.302Z,1.00
2022-11-09T00:11:06.748Z,1.00
2022-11-09T00:11:29.403Z,1.00
2022-11-09T00:11:52.104Z,1.00
2022-11-09T00:12:14.772Z,1.00
2022-11-09T00:12:37.442Z,1.00
2022-11-09T00:13:00.142Z,1.00
2022-11-09T00:13:23.278Z,1.00
2022-11-09T00:13:46.577Z,1.00
2022-11-09T00:14:14.257Z,1.00
2022-11-09T00:14:37.325Z,1.00
2022-11-09T00:14:59.944Z,1.00
2022-11-09T00:15:22.712Z,1.00
2022-11-09T00:15:45.374Z,1.00
2022-11-09T00:16:09.286Z,1.00
2022-11-09T00:16:31.928Z,1.00
2022-11-09T00:16:54.724Z,1.00
2022-11-09T00:17:17.367Z,1.00
2022-11-09T00:17:40.021Z,1.00
2022-11-09T00:18:05.475Z,1.00
2022-11-09T00:18:28.358Z,1.00
2022-11-09T00:18:52.018Z,1.00
2022-11-09T00:19:14.888Z,1.00
2022-11-09T00:19:37.627Z,1.00
2022-11-09T00:20:00.326Z,1.00
2022-11-09T00:20:23.147Z,1.00
2022-11-09T00:20:47.910Z,1.00
2022-11-09T00:21:12.163Z,1.00
2022-11-09T00:21:34.804Z,1.00
2022-11-09T00:21:57.528Z,1.10
2022-11-09T00:22:20.231Z,1.10
2022-11-09T00:22:43.211Z,1.70
2022-11-09T00:23:06.081Z,2.30
2022-11-09T00:23:28.791Z,2.20
2022-11-09T00:23:51.532Z,1.60
2022-11-09T00:24:16.857Z,1.00
2022-11-09T00:24:39.606Z,1.00
2022-11-09T00:25:02.460Z,1.00
2022-11-09T00:25:25.276Z,1.00
2022-11-09T00:25:48.033Z,1.10
2022-11-09T00:26:13.067Z,1.90
2022-11-09T00:26:35.892Z,1.70
2022-11-09T00:26:58.642Z,1.80
2022-11-09T00:27:21.396Z,1.90
2022-11-09T00:27:44.118Z,1.80
2022-11-09T00:28:06.875Z,2.30
2022-11-09T00:28:29.636Z,2.50
2022-11-09T00:28:53.146Z,2.10
2022-11-09T00:29:15.907Z,2.10
2022-11-09T00:29:38.716Z,2.10
2022-11-09T00:30:01.472Z,2.70
2022-11-09T00:30:24.183Z,2.60
2022-11-09T00:30:46.922Z,2.80
2022-11-09T00:31:12.291Z,2.70
2022-11-09T00:31:35.579Z,2.50
2022-11-09T00:31:58.452Z,2.30
2022-11-09T00:32:25.229Z,2.70
2022-11-09T00:32:50.241Z,2.60
2022-11-09T00:33:12.944Z,2.50
2022-11-09T00:33:35.632Z,2.20
2022-11-09T00:33:58.572Z,2.30
2022-11-09T00:34:21.399Z,2.40
2022-11-09T00:34:44.336Z,2.30
2022-11-09T00:35:07.596Z,2.30
2022-11-09T00:35:30.371Z,2.60
2022-11-09T00:35:52.952Z,3.00
2022-11-09T00:36:15.667Z,2.90
2022-11-09T00:36:38.413Z,3.20
2022-11-09T00:37:02.242Z,3.80
2022-11-09T00:37:25.071Z,4.00
2022-11-09T00:37:47.979Z,3.70
2022-11-09T00:38:10.779Z,3.50
2022-11-09T00:38:33.825Z,3.30
2022-11-09T00:38:57.532Z,3.10
2022-11-09T00:39:20.287Z,2.20
2022-11-09T00:39:44.172Z,1.60
2022-11-09T00:40:09.038Z,2.00
2022-11-09T00:40:31.841Z,1.70
2022-11-09T00:40:58.721Z,1.00
2022-11-09T00:41:23.187Z,1.40
2022-11-09T00:41:45.882Z,2.10
2022-11-09T00:42:08.588Z,2.00
2022-11-09T00:42:31.251Z,1.20
2022-11-09T00:42:53.872Z,1.00
2022-11-09T00:43:17.257Z,1.00
2022-11-09T00:43:41.601Z,1.00
2022-11-09T00:44:04.807Z,1.00
2022-11-09T00:44:28.007Z,1.00
2022-11-09T00:44:50.756Z,1.00
2022-11-09T00:45:13.602Z,1.10
2022-11-09T00:45:36.382Z,1.00
2022-11-09T00:45:59.192Z,1.00
2022-11-09T00:46:22.154Z,1.00
2022-11-09T00:46:45.240Z,1.10
2022-11-09T00:47:10.787Z,1.00
2022-11-09T00:47:33.526Z,1.70
2022-11-09T00:47:56.220Z,2.00
2022-11-09T00:48:18.972Z,1.00
2022-11-09T00:48:41.733Z,1.00
2022-11-09T00:49:04.496Z,1.00
2022-11-09T00:49:27.193Z,1.00
2022-11-09T00:49:50.056Z,1.00
2022-11-09T00:50:12.774Z,1.00
2022-11-09T00:50:35.522Z,1.00
2022-11-09T00:50:58.317Z,1.00
2022-11-09T00:51:21.121Z,1.00
2022-11-09T00:51:43.891Z,1.00
2022-11-09T00:52:06.619Z,1.00
2022-11-09T00:52:29.357Z,1.00
2022-11-09T00:52:52.048Z,1.00
2022-11-09T00:53:14.746Z,1.00
2022-11-09T00:53:37.433Z,1.00
2022-11-09T00:54:00.150Z,1.00
2022-11-09T00:54:22.872Z,1.00
2022-11-09T00:54:45.726Z,1.00
2022-11-09T00:55:09.342Z,1.00
2022-11-09T00:55:32.037Z,1.00
2022-11-09T00:55:55.944Z,1.00
2022-11-09T00:56:22.825Z,1.30
2022-11-09T00:56:45.592Z,1.90
2022-11-09T00:57:08.363Z,2.10
2022-11-09T00:57:31.138Z,2.30
2022-11-09T00:57:53.885Z,2.90
2022-11-09T00:58:16.542Z,3.20
2022-11-09T00:58:41.762Z,3.60
2022-11-09T00:59:05.027Z,3.20
2022-11-09T00:59:28.798Z,4.00
2022-11-09T00:59:53.767Z,4.00
2022-11-09T01:00:18.147Z,4.00
2022-11-09T01:00:40.915Z,3.40
2022-11-09T01:01:07.303Z,2.70
2022-11-09T01:01:30.156Z,1.80
2022-11-09T01:01:53.327Z,2.20
2022-11-09T01:02:16.093Z,2.60
2022-11-09T01:02:38.837Z,2.20
2022-11-09T01:03:01.513Z,1.80
2022-11-09T01:03:24.463Z,1.60
2022-11-09T01:03:47.208Z,1.60
2022-11-09T01:04:09.928Z,1.60
2022-11-09T01:04:32.722Z,1.60
2022-11-09T01:04:55.387Z,1.70
2022-11-09T01:05:18.247Z,1.70
2022-11-09T01:05:40.969Z,1.70
2022-11-09T01:06:03.667Z,1.50
2022-11-09T01:06:26.514Z,1.10
2022-11-09T01:06:49.306Z,1.00
2022-11-09T01:07:12.138Z,1.00
2022-11-09T01:07:34.902Z,1.30
2022-11-09T01:07:57.617Z,1.60
2022-11-09T01:08:20.540Z,2.00
2022-11-09T01:08:43.537Z,2.30
2022-11-09T01:09:09.293Z,2.50
2022-11-09T01:09:32.647Z,2.50
2022-11-09T01:09:55.491Z,2.80
2022-11-09T01:10:18.260Z,3.40
2022-11-09T01:10:42.485Z,3.90
2022-11-09T01:11:05.497Z,3.90
2022-11-09T01:11:29.662Z,4.00
2022-11-09T01:11:52.467Z,3.00
2022-11-09T01:12:15.487Z,2.40
2022-11-09T01:12:38.246Z,2.20
2022-11-09T01:13:00.952Z,2.10
2022-11-09T01:13:23.762Z,2.20
2022-11-09T01:13:46.482Z,2.30
2022-11-09T01:14:10.737Z,2.20
2022-11-09T01:14:33.495Z,2.50
2022-11-09T01:14:56.356Z,3.00
2022-11-09T01:15:22.397Z,2.70
2022-11-09T01:15:46.631Z,2.50
2022-11-09T01:16:10.870Z,3.10
2022-11-09T01:16:33.647Z,2.80
2022-11-09T01:16:56.352Z,2.20
2022-11-09T01:17:19.207Z,1.80
2022-11-09T01:17:41.968Z,1.80
2022-11-09T01:18:07.043Z,2.00
2022-11-09T01:18:29.768Z,1.90
2022-11-09T01:18:54.262Z,2.20
2022-11-09T01:19:17.017Z,2.30
2022-11-09T01:19:39.700Z,2.20
2022-11-09T01:20:02.476Z,2.00
2022-11-09T01:20:25.198Z,1.80
2022-11-09T01:20:49.026Z,1.80
2022-11-09T01:21:13.037Z,1.80
2022-11-09T01:21:35.911Z,2.00
2022-11-09T01:22:01.174Z,2.00
2022-11-09T01:22:23.891Z,1.90
2022-11-09T01:22:46.873Z,1.80
2022-11-09T01:23:12.082Z,1.80
2022-11-09T01:23:34.883Z,2.30
2022-11-09T01:23:58.643Z,2.60
2022-11-09T01:24:21.538Z,2.80
2022-11-09T01:24:44.322Z,2.90
2022-11-09T01:25:07.690Z,2.70
2022-11-09T01:25:30.403Z,2.60
2022-11-09T01:25:58.642Z,2.40
2022-11-09T01:26:21.448Z,2.70
2022-11-09T01:26:45.607Z,2.30
2022-11-09T01:27:08.327Z,1.60
2022-11-09T01:27:31.043Z,1.10
2022-11-09T01:27:53.763Z,1.50
2022-11-09T01:28:16.518Z,1.50
2022-11-09T01:28:39.213Z,1.70
2022-11-09T01:29:01.947Z,1.50
2022-11-09T01:29:24.583Z,1.30
2022-11-09T01:29:47.323Z,1.50
2022-11-09T01:30:11.211Z,1.80
2022-11-09T01:30:34.398Z,1.10
2022-11-09T01:31:00.497Z,1.00
2022-11-09T01:31:23.364Z,1.00
2022-11-09T01:31:46.951Z,1.00
2022-11-09T01:32:10.607Z,1.00
2022-11-09T01:32:33.400Z,1.00
2022-11-09T01:32:56.163Z,1.00
2022-11-09T01:33:18.945Z,1.00
2022-11-09T01:33:41.983Z,1.00
2022-11-09T01:34:04.787Z,1.00
2022-11-09T01:34:28.381Z,1.00
2022-11-09T01:34:51.138Z,1.00
2022-11-09T01:35:13.862Z,1.00
2022-11-09T01:35:37.312Z,1.00
2022-11-09T01:36:02.652Z,1.20
2022-11-09T01:36:25.400Z,1.60
2022-11-09T01:36:50.643Z,1.70
2022-11-09T01:37:13.447Z,1.80
2022-11-09T01:37:36.178Z,1.90
2022-11-09T01:37:58.880Z,2.10
2022-11-09T01:38:21.604Z,2.10
2022-11-09T01:38:44.322Z,2.20
2022-11-09T01:39:09.654Z,1.80
2022-11-09T01:39:32.325Z,2.20
2022-11-09T01:39:54.991Z,2.30
2022-11-09T01:40:17.842Z,2.40
2022-11-09T01:40:40.782Z,2.40
2022-11-09T01:41:03.533Z,2.10
2022-11-09T01:41:27.699Z,2.20
2022-11-09T01:41:51.840Z,3.10
2022-11-09T01:42:15.127Z,3.70
2022-11-09T01:42:39.888Z,3.70
2022-11-09T01:43:07.292Z,3.50
2022-11-09T01:43:29.979Z,3.30
2022-11-09T01:44:07.118Z,2.80
2022-11-09T01:44:29.779Z,3.00
2022-11-09T01:45:26.803Z,2.70
2022-11-09T01:45:50.461Z,3.60
2022-11-09T01:46:17.606Z,4.60
2022-11-09T01:46:45.128Z,4.20
2022-11-09T01:47:10.727Z,4.50
2022-11-09T01:47:33.507Z,4.60
2022-11-09T01:48:00.396Z,4.90
2022-11-09T01:48:28.497Z,4.90
2022-11-09T01:48:52.183Z,5.00
2022-11-09T01:49:19.794Z,5.20
2022-11-09T01:49:47.060Z,5.90
2022-11-09T01:50:09.901Z,6.10
2022-11-09T01:50:39.058Z,5.90
2022-11-09T01:51:03.690Z,6.10
2022-11-09T01:51:27.759Z,6.10
2022-11-09T01:51:52.489Z,6.00
2022-11-09T01:52:16.958Z,5.90
2022-11-09T01:52:40.668Z,5.90
2022-11-09T01:53:04.083Z,6.00
2022-11-09T01:53:27.971Z,5.80
2022-11-09T01:53:52.027Z,5.80
2022-11-09T01:54:18.391Z,6.00
2022-11-09T01:54:43.856Z,6.20
2022-11-09T01:55:08.302Z,6.30
2022-11-09T01:55:30.975Z,6.50
2022-11-09T01:55:55.077Z,6.30
2022-11-09T01:56:17.797Z,6.40
2022-11-09T01:56:40.640Z,6.70
2022-11-09T01:57:06.467Z,7.00
2022-11-09T01:57:30.782Z,7.20
2022-11-09T01:57:55.893Z,7.70
2022-11-09T01:58:21.106Z,8.00
2022-11-09T01:58:46.402Z,8.00
2022-11-09T01:59:10.480Z,8.00
2022-11-09T01:59:36.702Z,8.30
2022-11-09T02:00:01.267Z,8.30
2022-11-09T02:00:24.152Z,8.70
2022-11-09T02:00:50.601Z,8.80
2022-11-09T02:01:13.621Z,8.50
2022-11-09T02:01:36.537Z,8.60
2022-11-09T02:01:59.681Z,8.60
2022-11-09T02:02:22.870Z,8.80
2022-11-09T02:02:48.076Z,9.10
2022-11-09T02:03:12.967Z,9.30
2022-11-09T02:03:38.031Z,9.20
2022-11-09T02:04:03.291Z,9.20
2022-11-09T02:04:27.583Z,9.10
2022-11-09T02:04:52.004Z,9.30
2022-11-09T02:05:18.381Z,9.30
2022-11-09T02:05:42.157Z,9.60
2022-11-09T02:06:06.393Z,10.00
2022-11-09T02:06:29.929Z,10.30
2022-11-09T02:06:52.687Z,10.10
2022-11-09T02:07:15.508Z,10.40
2022-11-09T02:07:38.331Z,10.30
2022-11-09T02:08:02.094Z,9.80
2022-11-09T02:08:25.277Z,9.80
2022-11-09T02:08:48.022Z,9.70
2022-11-09T02:09:21.057Z,9.60
2022-11-09T02:09:47.871Z,9.80
2022-11-09T02:10:13.762Z,9.80
2022-11-09T02:10:43.832Z,9.70
2022-11-09T02:11:09.172Z,10.00
2022-11-09T02:11:31.948Z,10.20
2022-11-09T02:11:54.733Z,10.00
2022-11-09T02:12:19.366Z,9.90
2022-11-09T02:12:42.140Z,9.80
2022-11-09T02:13:04.797Z,9.70
2022-11-09T02:13:27.578Z,9.60
2022-11-09T02:13:54.741Z,9.70
2022-11-09T02:14:18.265Z,9.80
2022-11-09T02:14:41.137Z,10.20
2022-11-09T02:15:05.292Z,10.20
2022-11-09T02:15:28.008Z,10.20
2022-11-09T02:15:50.721Z,10.30
2022-11-09T02:16:13.914Z,10.20
2022-11-09T02:16:36.677Z,9.90
2022-11-09T02:16:59.395Z,9.80
2022-11-09T02:17:22.146Z,9.90
2022-11-09T02:17:44.866Z,9.90
2022-11-09T02:18:07.600Z,10.10
2022-11-09T02:18:31.158Z,9.90
2022-11-09T02:18:54.870Z,10.00
2022-11-09T02:19:17.596Z,10.10
2022-11-09T02:19:40.311Z,10.20
2022-11-09T02:20:09.355Z,10.20
2022-11-09T02:20:32.110Z,10.20
2022-11-09T02:20:55.795Z,10.30
2022-11-09T02:21:18.585Z,10.30
2022-11-09T02:21:41.316Z,10.70
2022-11-09T02:22:04.186Z,10.20
2022-11-09T02:22:26.872Z,10.40
2022-11-09T02:22:49.630Z,10.60
2022-11-09T02:23:12.449Z,11.20
2022-11-09T02:23:35.121Z,10.80
2022-11-09T02:23:58.072Z,10.90
2022-11-09T02:24:21.096Z,10.80
2022-11-09T02:24:43.895Z,10.90
2022-11-09T02:25:08.167Z,10.90
2022-11-09T02:25:30.935Z,10.80
2022-11-09T02:25:55.690Z,10.80
2022-11-09T02:26:19.841Z,10.80
2022-11-09T02:26:44.200Z,10.80
2022-11-09T02:27:07.371Z,10.80
2022-11-09T02:27:30.098Z,10.90
2022-11-09T02:27:52.796Z,11.00
2022-11-09T02:28:15.771Z,11.10
2022-11-09T02:28:38.824Z,11.10
2022-11-09T02:29:03.875Z,11.20
2022-11-09T02:29:28.505Z,11.30
2022-11-09T02:29:51.256Z,11.40
2022-11-09T02:30:14.510Z,11.50
2022-11-09T02:30:37.211Z,11.40
2022-11-09T02:30:59.916Z,11.40
2022-11-09T02:31:24.831Z,11.40
2022-11-09T02:31:49.915Z,11.20
2022-11-09T02:32:15.030Z,11.10
2022-11-09T02:32:37.750Z,11.10
2022-11-09T02:33:00.540Z,11.10
2022-11-09T02:33:23.436Z,11.00
2022-11-09T02:33:54.409Z,11.10
2022-11-09T02:34:18.575Z,11.10
2022-11-09T02:34:41.375Z,11.10
2022-11-09T02:35:04.477Z,11.10
2022-11-09T02:35:28.555Z,11.10
2022-11-09T02:35:51.258Z,11.00
2022-11-09T02:36:13.925Z,11.00
2022-11-09T02:36:36.632Z,11.00
2022-11-09T02:36:59.374Z,11.00
2022-11-09T02:37:26.810Z,11.10
2022-11-09T02:37:49.914Z,11.10
2022-11-09T02:38:13.176Z,11.00
2022-11-09T02:38:35.903Z,11.00
2022-11-09T02:38:58.711Z,10.90
2022-11-09T02:39:23.370Z,10.80
2022-11-09T02:39:46.072Z,10.90
2022-11-09T02:40:12.657Z,10.90
2022-11-09T02:40:37.915Z,10.80
2022-11-09T02:41:00.637Z,10.80
2022-11-09T02:41:23.359Z,10.80
2022-11-09T02:41:50.559Z,10.70
2022-11-09T02:42:18.333Z,10.70
2022-11-09T02:42:44.020Z,10.90
2022-11-09T02:43:06.753Z,10.90
2022-11-09T02:43:29.619Z,11.00
2022-11-09T02:43:53.749Z,11.00
2022-11-09T02:44:19.362Z,11.10
2022-11-09T02:44:46.411Z,11.20
2022-11-09T02:45:10.729Z,11.30
2022-11-09T02:45:33.553Z,11.30
2022-11-09T02:45:56.349Z,11.30
2022-11-09T02:46:24.131Z,11.30
2022-11-09T02:46:46.904Z,11.30
2022-11-09T02:47:09.630Z,11.00
2022-11-09T02:47:32.272Z,11.20
2022-11-09T02:47:55.039Z,11.20
2022-11-09T02:48:17.795Z,11.30
2022-11-09T02:48:40.463Z,11.30
2022-11-09T02:49:05.939Z,11.40
2022-11-09T02:49:28.619Z,11.40
2022-11-09T02:49:51.540Z,11.50
2022-11-09T02:50:14.269Z,11.40
2022-11-09T02:50:38.444Z,11.40
2022-11-09T02:51:01.202Z,11.40
2022-11-09T02:51:23.889Z,11.40
2022-11-09T02:51:46.669Z,11.50
2022-11-09T02:52:09.430Z,11.30
2022-11-09T02:52:32.155Z,11.30
2022-11-09T02:52:54.910Z,11.30
2022-11-09T02:53:18.263Z,11.40
2022-11-09T02:53:43.859Z,11.50
2022-11-09T02:54:06.785Z,11.60
2022-11-09T02:54:29.578Z,11.50
2022-11-09T02:54:52.304Z,11.30
2022-11-09T02:55:15.208Z,11.50
2022-11-09T02:55:37.893Z,11.60
2022-11-09T02:56:00.668Z,11.60
2022-11-09T02:56:23.546Z,11.50
2022-11-09T02:56:46.258Z,11.40
2022-11-09T02:57:08.994Z,11.40
2022-11-09T02:57:31.676Z,11.40
2022-11-09T02:57:54.403Z,11.40
2022-11-09T02:58:17.189Z,11.30
2022-11-09T02:58:39.973Z,11.00
2022-11-09T02:59:03.525Z,10.90
2022-11-09T02:59:27.379Z,10.90
2022-11-09T02:59:50.078Z,11.00
2022-11-09T03:00:13.378Z,11.00
2022-11-09T03:00:36.004Z,10.90
2022-11-09T03:00:58.806Z,10.80
2022-11-09T03:01:21.628Z,10.80
2022-11-09T03:01:44.411Z,11.00
2022-11-09T03:02:07.243Z,11.10
2022-11-09T03:02:29.943Z,11.00
2022-11-09T03:02:52.743Z,10.80
2022-11-09T03:03:15.519Z,10.80
2022-11-09T03:03:38.260Z,10.80
2022-11-09T03:04:00.926Z,10.80
2022-11-09T03:04:23.785Z,10.90
2022-11-09T03:04:46.545Z,10.90
2022-11-09T03:05:09.662Z,11.10
2022-11-09T03:05:32.483Z,11.00
2022-11-09T03:05:56.643Z,11.00
2022-11-09T03:06:19.533Z,11.20
2022-11-09T03:06:42.398Z,11.10
2022-11-09T03:07:05.277Z,11.00
2022-11-09T03:07:28.164Z,10.90
2022-11-09T03:07:50.878Z,10.90
2022-11-09T03:08:16.123Z,11.10
2022-11-09T03:08:38.895Z,11.30
2022-11-09T03:09:01.884Z,11.20
2022-11-09T03:09:24.634Z,11.00
2022-11-09T03:09:50.238Z,10.90
2022-11-09T03:10:12.986Z,10.60
2022-11-09T03:10:35.778Z,10.40
2022-11-09T03:10:59.843Z,10.40
2022-11-09T03:11:22.658Z,10.40
2022-11-09T03:11:45.437Z,10.40
2022-11-09T03:12:29.270Z,10.30
2022-11-09T03:12:51.984Z,10.40
2022-11-09T03:13:14.704Z,10.20
2022-11-09T03:13:37.469Z,10.10
2022-11-09T03:14:00.169Z,9.80
2022-11-09T03:14:23.889Z,8.80
2022-11-09T03:14:47.223Z,8.60
2022-11-09T03:15:10.616Z,8.50
2022-11-09T03:15:33.344Z,8.50
2022-11-09T03:15:56.043Z,8.80
2022-11-09T03:16:18.729Z,8.70
2022-11-09T03:16:44.209Z,8.60
2022-11-09T03:17:09.280Z,8.50
2022-11-09T03:17:32.233Z,8.90
2022-11-09T03:17:55.029Z,9.00
2022-11-09T03:18:17.743Z,9.10
2022-11-09T03:18:40.476Z,9.30
2022-11-09T03:19:03.238Z,9.40
2022-11-09T03:19:26.119Z,9.30
2022-11-09T03:19:52.149Z,9.50
2022-11-09T03:20:15.114Z,9.60
2022-11-09T03:20:37.829Z,9.60
2022-11-09T03:21:05.133Z,9.70
2022-11-09T03:21:28.463Z,9.40
2022-11-09T03:21:51.229Z,9.20
2022-11-09T03:22:13.908Z,9.20
2022-11-09T03:22:36.695Z,8.90
2022-11-09T03:23:01.759Z,9.10
2022-11-09T03:23:24.558Z,9.00
2022-11-09T03:23:47.344Z,8.90
2022-11-09T03:24:10.183Z,8.90
2022-11-09T03:24:32.994Z,8.50
2022-11-09T03:24:55.854Z,8.30
2022-11-09T03:25:18.635Z,8.40
2022-11-09T03:25:41.369Z,8.60
2022-11-09T03:26:04.043Z,8.40
2022-11-09T03:26:26.814Z,8.00
2022-11-09T03:26:49.488Z,7.70
2022-11-09T03:27:12.256Z,7.20
2022-11-09T03:27:34.943Z,6.60
2022-11-09T03:27:58.589Z,6.20
2022-11-09T03:28:22.374Z,6.60
2022-11-09T03:28:45.138Z,6.80
2022-11-09T03:29:07.999Z,6.60
2022-11-09T03:29:31.014Z,6.00
2022-11-09T03:29:55.685Z,5.40
2022-11-09T03:30:19.429Z,4.80
2022-11-09T03:30:42.071Z,4.40
2022-11-09T03:31:05.014Z,3.90
2022-11-09T03:31:27.723Z,3.30
2022-11-09T03:31:50.518Z,3.40
2022-11-09T03:32:13.252Z,2.90
2022-11-09T03:32:35.931Z,2.60
2022-11-09T03:32:59.394Z,2.50
2022-11-09T03:33:22.419Z,2.60
2022-11-09T03:33:45.513Z,3.40
2022-11-09T03:34:08.278Z,3.10
2022-11-09T03:34:30.955Z,2.70
2022-11-09T03:34:53.666Z,2.20
2022-11-09T03:35:16.635Z,2.00
2022-11-09T03:35:39.435Z,2.20
2022-11-09T03:36:02.098Z,2.40
2022-11-09T03:36:26.318Z,2.10
2022-11-09T03:36:49.181Z,2.00
2022-11-09T03:37:11.976Z,2.70
2022-11-09T03:37:34.784Z,2.40
2022-11-09T03:38:00.854Z,2.70
2022-11-09T03:38:26.429Z,2.90
2022-11-09T03:38:49.109Z,3.40
2022-11-09T03:39:11.843Z,3.30
2022-11-09T03:39:34.618Z,3.40
2022-11-09T03:39:57.325Z,3.40
2022-11-09T03:40:20.000Z,4.30
2022-11-09T03:40:42.837Z,4.90
2022-11-09T03:41:05.858Z,5.00
2022-11-09T03:41:28.546Z,5.00
2022-11-09T03:41:51.292Z,5.10
2022-11-09T03:42:14.062Z,5.60
2022-11-09T03:42:39.999Z,5.50
2022-11-09T03:43:02.833Z,5.60
2022-11-09T03:43:25.588Z,6.00
2022-11-09T03:43:48.335Z,5.60
2022-11-09T03:44:11.029Z,5.60
2022-11-09T03:44:33.761Z,5.40
2022-11-09T03:44:59.117Z,5.20
2022-11-09T03:45:21.864Z,5.00
2022-11-09T03:45:44.507Z,4.60
2022-11-09T03:46:07.164Z,4.70
2022-11-09T03:46:29.918Z,5.40
2022-11-09T03:46:52.668Z,6.10
2022-11-09T03:47:15.391Z,7.00
2022-11-09T03:47:40.811Z,7.20
2022-11-09T03:48:03.842Z,6.80
2022-11-09T03:48:26.589Z,6.30
2022-11-09T03:48:49.264Z,6.40
2022-11-09T03:49:11.979Z,7.20
2022-11-09T03:49:37.209Z,7.10
2022-11-09T03:49:59.880Z,6.80
2022-11-09T03:50:22.784Z,6.90
2022-11-09T03:50:45.492Z,6.40
2022-11-09T03:51:08.239Z,6.10
2022-11-09T03:51:32.364Z,5.70
2022-11-09T03:51:54.996Z,5.90
2022-11-09T03:52:17.699Z,5.50
2022-11-09T03:52:40.486Z,5.10
2022-11-09T03:53:03.276Z,5.70
2022-11-09T03:53:25.969Z,5.70
2022-11-09T03:53:48.722Z,5.80
2022-11-09T03:54:11.410Z,5.80
2022-11-09T03:54:36.265Z,5.90
2022-11-09T03:54:59.069Z,6.30
2022-11-09T03:55:21.760Z,6.40
2022-11-09T03:55:44.558Z,6.70
2022-11-09T03:56:10.489Z,6.70
2022-11-09T03:56:33.177Z,6.50
2022-11-09T03:56:55.969Z,6.40
2022-11-09T03:57:18.677Z,6.60
2022-11-09T03:57:41.328Z,6.90
2022-11-09T03:58:04.173Z,7.10
2022-11-09T03:58:26.875Z,7.20
2022-11-09T03:58:49.575Z,7.30
2022-11-09T03:59:13.265Z,7.40
2022-11-09T03:59:36.479Z,7.50
2022-11-09T03:59:59.225Z,8.20
2022-11-09T04:00:22.816Z,8.20
2022-11-09T04:00:45.555Z,8.10
2022-11-09T04:01:08.469Z,8.30
2022-11-09T04:01:31.439Z,8.30
2022-11-09T04:01:54.207Z,8.20
2022-11-09T04:02:16.899Z,8.10
2022-11-09T04:02:39.639Z,8.10
2022-11-09T04:03:02.353Z,8.10
2022-11-09T04:03:27.859Z,8.20
2022-11-09T04:03:50.641Z,8.20
2022-11-09T04:04:13.397Z,8.20
2022-11-09T04:04:36.048Z,8.10
2022-11-09T04:04:58.944Z,8.10
2022-11-09T04:05:21.831Z,8.20
2022-11-09T04:05:44.482Z,8.30
2022-11-09T04:06:07.316Z,8.40
2022-11-09T04:06:31.745Z,8.40
2022-11-09T04:06:54.668Z,8.40
2022-11-09T04:07:17.682Z,8.30
2022-11-09T04:07:40.679Z,8.20
2022-11-09T04:08:03.453Z,8.10
2022-11-09T04:08:26.134Z,8.10
2022-11-09T04:08:51.495Z,8.90
2022-11-09T04:09:14.964Z,8.80
2022-11-09T04:09:37.669Z,9.20
2022-11-09T04:10:00.436Z,9.00
2022-11-09T04:10:23.477Z,8.70
2022-11-09T04:10:46.170Z,8.80
2022-11-09T04:11:08.944Z,8.80
2022-11-09T04:11:32.826Z,8.90
2022-11-09T04:11:55.519Z,8.90
2022-11-09T04:12:18.214Z,9.00
2022-11-09T04:12:41.005Z,9.10
2022-11-09T04:13:03.770Z,9.10
2022-11-09T04:13:26.509Z,9.00
2022-11-09T04:13:49.319Z,9.20
2022-11-09T04:14:12.396Z,9.20
2022-11-09T04:14:35.068Z,9.10
2022-11-09T04:15:00.544Z,9.00
2022-11-09T04:15:23.359Z,8.80
2022-11-09T04:15:46.050Z,8.90
2022-11-09T04:16:08.888Z,9.10
2022-11-09T04:16:31.652Z,9.20
2022-11-09T04:16:56.598Z,9.40
2022-11-09T04:17:19.394Z,9.50
2022-11-09T04:17:42.240Z,9.40
2022-11-09T04:18:05.001Z,8.90
2022-11-09T04:18:27.737Z,8.70
2022-11-09T04:18:50.391Z,8.90
2022-11-09T04:19:13.510Z,8.90
2022-11-09T04:19:36.421Z,8.70
2022-11-09T04:20:02.205Z,8.70
2022-11-09T04:20:25.207Z,8.50
2022-11-09T04:20:50.087Z,8.20
2022-11-09T04:21:12.894Z,8.20
2022-11-09T04:21:38.074Z,8.00
2022-11-09T04:22:01.189Z,7.40
2022-11-09T04:22:23.909Z,7.30
2022-11-09T04:22:46.617Z,7.60
2022-11-09T04:23:11.916Z,7.90
2022-11-09T04:23:34.644Z,7.60
2022-11-09T04:23:57.318Z,7.20
2022-11-09T04:24:20.014Z,7.30
2022-11-09T04:24:43.676Z,7.30
2022-11-09T04:25:09.165Z,7.30
2022-11-09T04:25:32.959Z,7.40
2022-11-09T04:25:57.829Z,7.10
2022-11-09T04:26:20.589Z,7.00
2022-11-09T04:26:43.259Z,7.30
2022-11-09T04:27:06.585Z,7.40
2022-11-09T04:27:30.114Z,7.60
2022-11-09T04:27:56.339Z,7.50
2022-11-09T04:28:19.027Z,6.80
2022-11-09T04:28:41.730Z,6.30
2022-11-09T04:29:04.431Z,6.00
2022-11-09T04:29:27.169Z,6.00
2022-11-09T04:29:49.755Z,6.40
2022-11-09T04:30:12.976Z,6.70
2022-11-09T04:30:36.041Z,7.00
2022-11-09T04:31:01.286Z,6.90
2022-11-09T04:31:27.898Z,6.80
2022-11-09T04:31:51.282Z,6.70
2022-11-09T04:32:13.943Z,6.60
2022-11-09T04:32:36.762Z,6.60
2022-11-09T04:33:00.178Z,6.80
2022-11-09T04:33:23.127Z,7.10
2022-11-09T04:33:49.888Z,7.50
2022-11-09T04:34:12.637Z,7.50
2022-11-09T04:34:35.347Z,7.50
2022-11-09T04:34:58.208Z,7.60
2022-11-09T04:35:20.838Z,7.80
2022-11-09T04:35:43.527Z,7.90
2022-11-09T04:36:06.566Z,8.10
2022-11-09T04:36:29.227Z,8.40
2022-11-09T04:36:53.382Z,8.10
2022-11-09T04:37:16.046Z,7.70
2022-11-09T04:37:38.793Z,7.50
2022-11-09T04:38:02.548Z,7.40
2022-11-09T04:38:25.255Z,7.40
2022-11-09T04:38:48.076Z,7.50
2022-11-09T04:39:10.913Z,7.50
2022-11-09T04:39:33.847Z,7.50
2022-11-09T04:39:56.570Z,7.70
2022-11-09T04:40:22.262Z,7.90
2022-11-09T04:40:44.949Z,7.70
2022-11-09T04:41:08.642Z,7.30
2022-11-09T04:41:31.366Z,6.90
2022-11-09T04:41:54.047Z,6.40
2022-11-09T04:42:16.848Z,5.60
2022-11-09T04:42:39.528Z,5.60
2022-11-09T04:43:02.292Z,5.40
2022-11-09T04:43:24.977Z,4.80
2022-11-09T04:43:47.918Z,4.70
2022-11-09T04:44:10.682Z,4.90
2022-11-09T04:44:33.442Z,5.10
2022-11-09T04:44:57.143Z,5.20
2022-11-09T04:45:19.842Z,4.90
2022-11-09T04:45:42.543Z,4.70
2022-11-09T04:46:05.588Z,4.90
2022-11-09T04:46:28.326Z,5.30
2022-11-09T04:46:50.993Z,5.10
2022-11-09T04:47:13.752Z,5.40
2022-11-09T04:47:36.522Z,5.70
2022-11-09T04:47:59.193Z,5.80
2022-11-09T04:48:21.922Z,6.20
2022-11-09T04:48:44.662Z,6.50
2022-11-09T04:49:07.627Z,6.70
2022-11-09T04:49:30.389Z,7.20
2022-11-09T04:49:54.126Z,7.70
2022-11-09T04:50:17.090Z,7.70
2022-11-09T04:50:39.826Z,7.20
2022-11-09T04:51:02.854Z,7.10
2022-11-09T04:51:25.923Z,6.80
2022-11-09T04:51:48.667Z,6.80
2022-11-09T04:52:15.307Z,6.80
2022-11-09T04:52:38.188Z,6.80
2022-11-09T04:53:07.903Z,6.80
2022-11-09T04:53:30.984Z,6.60
2022-11-09T04:53:53.713Z,6.30
2022-11-09T04:54:16.445Z,6.80
2022-11-09T04:54:39.192Z,6.60
2022-11-09T04:55:02.045Z,6.40
2022-11-09T04:55:24.688Z,6.10
2022-11-09T04:55:47.386Z,5.90
2022-11-09T04:56:10.153Z,5.50
2022-11-09T04:56:35.329Z,4.80
2022-11-09T04:56:58.069Z,4.70
2022-11-09T04:57:20.758Z,3.70
2022-11-09T04:57:43.514Z,3.20
2022-11-09T04:58:07.272Z,3.20
2022-11-09T04:58:30.053Z,2.70
2022-11-09T04:58:52.768Z,2.50
2022-11-09T04:59:15.479Z,3.40
2022-11-09T04:59:38.164Z,3.90
2022-11-09T05:00:00.818Z,3.10
2022-11-09T05:00:23.672Z,2.40
2022-11-09T05:00:46.378Z,1.60
2022-11-09T05:01:11.241Z,1.30
2022-11-09T05:01:34.008Z,1.60
2022-11-09T05:01:56.723Z,1.90
2022-11-09T05:02:22.667Z,1.70
2022-11-09T05:02:46.422Z,2.20
2022-11-09T05:03:09.385Z,3.10
2022-11-09T05:03:32.124Z,4.10
2022-11-09T05:03:55.051Z,3.50
2022-11-09T05:04:17.981Z,2.50
2022-11-09T05:04:40.800Z,2.20
2022-11-09T05:05:03.699Z,2.40
2022-11-09T05:05:26.439Z,2.10
2022-11-09T05:05:49.237Z,1.40
2022-11-09T05:06:30.349Z,1.20
2022-11-09T05:06:56.266Z,1.90
2022-11-09T05:07:20.479Z,1.00
2022-11-09T05:07:43.219Z,1.00
2022-11-09T05:08:08.084Z,1.00
2022-11-09T05:08:30.820Z,1.00
2022-11-09T05:08:53.647Z,1.00
2022-11-09T05:09:16.355Z,1.00
2022-11-09T05:09:41.897Z,1.00
2022-11-09T05:10:04.978Z,1.00
2022-11-09T05:10:27.739Z,1.00
2022-11-09T05:10:50.442Z,1.00
2022-11-09T05:11:13.295Z,1.00